Time;durP1;ratioP1;P1;durP2;ratioP2;P2;SDS_P1;SDS_P2;PMS_P1;PMS_P2;Temp;Humidity;BMP_temperature;BMP_pressure;BME280_temperature;BME280_humidity;BME280_pressure;Samples;Min_cycle;Max_cycle;Signal;HPM_P1;HPM_P2
2021/06/04 00:01:07;;;;;;;;;;;22.70;84.10;;;;;;4302703;33;20020;-80
2021/06/04 00:03:35;;;;;;;;;;;22.70;84.10;;;;;;4302246;33;20017;-80
2021/06/04 00:06:04;;;;;;;;;;;22.70;84.10;;;;;;4289609;33;20405;-80
2021/06/04 00:08:32;;;;;;;;;;;22.70;84.10;;;;;;4302311;33;20010;-79
2021/06/04 00:11:04;;;;;;;;;;;22.70;84.20;;;;;;4289480;33;20407;-79
2021/06/04 00:13:37;;;;;;;;;;;22.70;84.10;;;;;;4289489;33;20007;-79
2021/06/04 00:16:06;;;;;;;;;;;22.70;84.20;;;;;;4302603;33;20010;-79
2021/06/04 00:18:34;;;;;;;;;;;22.60;84.10;;;;;;4302240;33;20025;-79
2021/06/04 00:21:02;;;;;;;;;;;22.60;84.20;;;;;;4289036;33;20010;-79
2021/06/04 00:23:29;;;;;;;;;;;22.60;84.20;;;;;;4302212;33;20396;-80
2021/06/04 00:25:58;;;;;;;;;;;22.60;84.30;;;;;;4302449;33;20014;-80
2021/06/04 00:28:26;;;;;;;;;;;22.60;84.30;;;;;;4289450;33;20356;-80
2021/06/04 00:30:54;;;;;;;;;;;22.60;84.30;;;;;;4288989;33;20355;-80
2021/06/04 00:33:22;;;;;;;;;;;22.60;84.30;;;;;;4289668;33;20026;-80
2021/06/04 00:35:49;;;;;;;;;;;22.60;84.30;;;;;;4289376;33;20513;-80
2021/06/04 00:38:16;;;;;;;;;;;22.60;84.30;;;;;;4288844;33;26434;-81
2021/06/04 00:40:45;;;;;;;;;;;22.60;84.40;;;;;;4301964;33;20027;-80
2021/06/04 00:43:13;;;;;;;;;;;22.50;84.30;;;;;;4302250;33;20014;-81
2021/06/04 00:45:42;;;;;;;;;;;22.60;84.40;;;;;;4288920;33;20014;-81
2021/06/04 00:48:09;;;;;;;;;;;22.50;84.30;;;;;;4289384;33;20081;-81
2021/06/04 00:50:48;;;;;;;;;;;22.50;84.30;;;;;;4302116;33;20014;-81
2021/06/04 00:53:16;;;;;;;;;;;22.50;84.40;;;;;;4302759;33;20024;-81
2021/06/04 00:55:43;;;;;;;;;;;22.50;84.40;;;;;;4289339;33;20028;-81
2021/06/04 00:58:12;;;;;;;;;;;22.50;84.40;;;;;;4302606;33;20006;-80
2021/06/04 01:00:42;;;;;;;;;;;22.50;84.40;;;;;;4302766;33;20937;-81
2021/06/04 01:03:10;;;;;;;;;;;22.50;84.40;;;;;;4291015;33;25489;-80
2021/06/04 01:05:39;;;;;;;;;;;22.50;84.40;;;;;;4279817;33;20085;-80
2021/06/04 01:08:13;;;;;;;;;;;22.50;84.40;;;;;;4304270;33;21817;-81
2021/06/04 01:11:01;;;;;;;;;;;22.50;84.40;;;;;;4305027;33;20013;-81
2021/06/04 01:13:31;;;;;;;;;;;22.40;84.40;;;;;;4291650;33;26625;-81
2021/06/04 01:16:07;;;;;;;;;;;22.40;84.40;;;;;;4304792;33;20026;-81
2021/06/04 01:18:53;;;;;;;;;;;22.40;84.40;;;;;;4291648;33;20012;-81
2021/06/04 01:21:30;;;;;;;;;;;22.40;84.50;;;;;;4292113;33;20428;-81
2021/06/04 01:23:57;;;;;;;;;;;22.40;84.50;;;;;;4291841;33;20028;-81
2021/06/04 01:26:37;;;;;;;;;;;22.40;84.50;;;;;;4304404;33;20133;-81
2021/06/04 01:29:12;;;;;;;;;;;22.40;84.50;;;;;;4304526;33;26288;-80
2021/06/04 01:31:45;;;;;;;;;;;22.30;84.40;;;;;;4292284;33;20074;-80
2021/06/04 01:34:19;;;;;;;;;;;22.30;84.40;;;;;;4304571;33;20018;-80
2021/06/04 01:36:48;;;;;;;;;;;22.30;84.50;;;;;;4304302;33;20112;-80
2021/06/04 01:39:17;;;;;;;;;;;22.30;84.40;;;;;;4303877;33;22370;-80
2021/06/04 01:41:46;;;;;;;;;;;22.30;84.40;;;;;;4304072;33;24270;-80
2021/06/04 01:44:19;;;;;;;;;;;22.30;84.40;;;;;;4304069;33;26667;-80
2021/06/04 01:46:48;;;;;;;;;;;22.30;84.40;;;;;;4304364;33;20061;-79
2021/06/04 01:49:18;;;;;;;;;;;22.30;84.40;;;;;;4291314;33;20018;-79
2021/06/04 01:51:48;;;;;;;;;;;22.30;84.30;;;;;;4304465;33;20408;-80
2021/06/04 01:54:21;;;;;;;;;;;22.30;84.20;;;;;;4303781;33;20021;-81
2021/06/04 01:56:51;;;;;;;;;;;22.20;84.10;;;;;;4291549;33;20073;-80
2021/06/04 01:59:29;;;;;;;;;;;22.20;84.10;;;;;;4303847;33;28196;-79
2021/06/04 02:01:57;;;;;;;;;;;22.20;84.10;;;;;;4291002;33;20006;-80
2021/06/04 02:04:29;;;;;;;;;;;22.10;84.10;;;;;;4291670;33;20437;-80
2021/06/04 02:06:57;;;;;;;;;;;22.10;84.10;;;;;;4304109;33;20022;-80
2021/06/04 02:09:27;;;;;;;;;;;22.10;84.30;;;;;;4278558;33;23711;-79
2021/06/04 02:11:56;;;;;;;;;;;22.10;84.30;;;;;;4303101;33;21510;-80
2021/06/04 02:14:30;;;;;;;;;;;22.10;84.30;;;;;;4303312;33;20006;-80
2021/06/04 02:17:04;;;;;;;;;;;22.10;84.40;;;;;;4290468;33;22712;-80
2021/06/04 02:19:53;;;;;;;;;;;22.10;84.40;;;;;;4290833;33;20073;-81
2021/06/04 02:22:41;;;;;;;;;;;22.10;84.40;;;;;;4304195;33;20069;-81
2021/06/04 02:25:08;;;;;;;;;;;22.10;84.40;;;;;;4268556;33;20791;-81
2021/06/04 02:27:39;;;;;;;;;;;22.10;84.30;;;;;;4303400;33;27028;-81
2021/06/04 02:30:19;;;;;;;;;;;22.10;84.20;;;;;;4304012;33;20013;-81
2021/06/04 02:32:46;;;;;;;;;;;22.00;84.20;;;;;;4304281;33;20066;-81
2021/06/04 02:35:25;;;;;;;;;;;22.00;84.20;;;;;;4290397;33;20013;-81
2021/06/04 02:37:59;;;;;;;;;;;22.00;84.30;;;;;;4303279;33;44462;-81
2021/06/04 02:40:34;;;;;;;;;;;22.00;84.30;;;;;;4302466;33;38139;-81
2021/06/04 02:43:10;;;;;;;;;;;22.00;84.40;;;;;;4303980;33;20017;-82
2021/06/04 02:45:40;;;;;;;;;;;22.00;84.40;;;;;;4302772;33;44695;-81
2021/06/04 02:48:12;;;;;;;;;;;21.90;84.40;;;;;;4277735;33;43549;-81
2021/06/04 02:50:50;;;;;;;;;;;21.90;84.50;;;;;;4289265;33;43595;-81
2021/06/04 02:53:23;;;;;;;;;;;21.90;84.50;;;;;;4277177;33;44564;-81
2021/06/04 02:56:02;;;;;;;;;;;21.80;84.40;;;;;;4302395;33;43664;-81
2021/06/04 02:58:29;;;;;;;;;;;21.80;84.40;;;;;;4290205;33;20003;-81
2021/06/04 03:00:57;;;;;;;;;;;21.80;84.30;;;;;;4303534;33;20019;-81
2021/06/04 03:03:24;;;;;;;;;;;21.80;84.20;;;;;;4287154;33;24306;-81
2021/06/04 03:05:51;;;;;;;;;;;21.80;84.20;;;;;;4290484;33;20022;-81
2021/06/04 03:08:21;;;;;;;;;;;21.80;84.10;;;;;;4303188;33;20020;-81
2021/06/04 03:10:50;;;;;;;;;;;21.80;84.10;;;;;;4289265;33;24170;-80
2021/06/04 03:13:19;;;;;;;;;;;21.80;84.00;;;;;;4303032;33;20458;-80
2021/06/04 03:15:48;;;;;;;;;;;21.80;83.90;;;;;;4303500;33;20400;-81
2021/06/04 03:18:18;;;;;;;;;;;21.80;83.90;;;;;;4289586;33;21863;-80
2021/06/04 03:20:46;;;;;;;;;;;21.80;83.80;;;;;;4303003;33;20024;-81
2021/06/04 03:23:15;;;;;;;;;;;21.80;83.80;;;;;;4303288;33;20018;-80
2021/06/04 03:25:44;;;;;;;;;;;21.70;83.90;;;;;;4289249;33;24634;-81
2021/06/04 03:28:13;;;;;;;;;;;21.70;83.90;;;;;;4289304;33;27812;-81
2021/06/04 03:30:42;;;;;;;;;;;21.70;84.80;;;;;;4289534;33;20683;-81
2021/06/04 03:33:10;;;;;;;;;;;21.70;83.90;;;;;;4302302;33;20026;-81
2021/06/04 03:35:37;;;;;;;;;;;21.70;83.90;;;;;;4290437;33;20014;-80
2021/06/04 03:38:05;;;;;;;;;;;21.70;83.90;;;;;;4289214;33;20455;-80
2021/06/04 03:40:32;;;;;;;;;;;21.70;83.90;;;;;;4302868;33;20010;-81
2021/06/04 03:43:01;;;;;;;;;;;21.70;83.90;;;;;;4289905;33;20412;-81
2021/06/04 03:45:30;;;;;;;;;;;21.60;83.80;;;;;;4289247;33;20486;-80
2021/06/04 03:47:57;;;;;;;;;;;21.60;83.80;;;;;;4302739;33;20021;-80
2021/06/04 03:50:24;;;;;;;;;;;21.60;83.90;;;;;;4302376;33;22308;-80
2021/06/04 03:52:52;;;;;;;;;;;21.60;83.80;;;;;;4302362;33;20426;-80
2021/06/04 03:55:22;;;;;;;;;;;21.60;83.80;;;;;;4289711;33;21089;-80
2021/06/04 03:57:52;;;;;;;;;;;21.60;83.80;;;;;;4302496;33;20047;-80
2021/06/04 04:00:19;;;;;;;;;;;21.60;83.90;;;;;;4288202;33;44470;-80
2021/06/04 04:02:46;;;;;;;;;;;21.60;83.90;;;;;;4288862;33;23665;-80
2021/06/04 04:05:13;;;;;;;;;;;21.60;84.00;;;;;;4302468;33;20018;-80
2021/06/04 04:07:41;;;;;;;;;;;21.50;84.00;;;;;;4288847;33;20475;-81
2021/06/04 04:10:09;;;;;;;;;;;21.50;84.00;;;;;;4289697;33;20044;-81
2021/06/04 04:12:36;;;;;;;;;;;21.50;84.00;;;;;;4289486;33;20379;-81
2021/06/04 04:15:08;;;;;;;;;;;21.50;84.00;;;;;;4289174;33;20412;-81
2021/06/04 04:17:35;;;;;;;;;;;21.50;84.10;;;;;;4302815;33;20044;-81
2021/06/04 04:20:03;;;;;;;;;;;21.50;84.10;;;;;;4289240;33;20037;-81
2021/06/04 04:22:31;;;;;;;;;;;21.50;84.20;;;;;;4277134;33;20339;-81
2021/06/04 04:24:58;;;;;;;;;;;21.50;84.20;;;;;;4302705;33;20014;-81
2021/06/04 04:27:26;;;;;;;;;;;21.50;84.30;;;;;;4288572;33;24931;-81
2021/06/04 04:29:53;;;;;;;;;;;21.50;84.40;;;;;;4288449;33;27006;-81
2021/06/04 04:32:20;;;;;;;;;;;21.40;84.30;;;;;;4288497;33;22120;-80
2021/06/04 04:34:47;;;;;;;;;;;21.40;84.40;;;;;;4288702;33;25034;-81
2021/06/04 04:37:15;;;;;;;;;;;21.40;84.40;;;;;;4291907;33;20048;-81
2021/06/04 04:39:45;;;;;;;;;;;21.40;84.50;;;;;;4305401;33;20017;-81
2021/06/04 04:42:14;;;;;;;;;;;21.40;85.30;;;;;;4305466;33;20006;-81
2021/06/04 04:44:42;;;;;;;;;;;21.40;84.60;;;;;;4305140;33;20487;-81
2021/06/04 04:47:11;;;;;;;;;;;21.30;84.70;;;;;;4291970;33;20002;-81
2021/06/04 04:49:38;;;;;;;;;;;21.40;84.80;;;;;;4304440;33;24382;-81
2021/06/04 04:52:11;;;;;;;;;;;21.40;85.00;;;;;;4304862;33;20010;-81
2021/06/04 04:54:39;;;;;;;;;;;21.40;85.10;;;;;;4304841;33;25839;-81
2021/06/04 04:57:06;;;;;;;;;;;21.40;85.20;;;;;;4280358;33;19998;-81
2021/06/04 04:59:35;;;;;;;;;;;21.40;85.20;;;;;;4305357;33;20002;-81
2021/06/04 05:02:02;;;;;;;;;;;21.40;85.30;;;;;;4291421;33;20773;-81
2021/06/04 05:04:29;;;;;;;;;;;21.40;85.40;;;;;;4291233;33;44024;-81
2021/06/04 05:06:56;;;;;;;;;;;21.30;85.40;;;;;;4291772;33;20002;-81
2021/06/04 05:09:24;;;;;;;;;;;21.40;85.60;;;;;;4304858;33;19998;-81
2021/06/04 05:11:51;;;;;;;;;;;21.40;85.80;;;;;;4303878;33;32571;-81
2021/06/04 05:14:18;;;;;;;;;;;21.40;85.80;;;;;;4290479;33;43575;-81
2021/06/04 05:16:45;;;;;;;;;;;21.30;86.60;;;;;;4278543;33;42033;-81
2021/06/04 05:19:12;;;;;;;;;;;21.30;85.90;;;;;;4304047;33;44312;-81
2021/06/04 05:21:39;;;;;;;;;;;21.30;86.00;;;;;;4290761;33;42554;-81
2021/06/04 05:24:07;;;;;;;;;;;21.30;86.20;;;;;;4290209;33;42433;-81
2021/06/04 05:26:35;;;;;;;;;;;21.40;86.30;;;;;;4303889;33;44328;-81
2021/06/04 05:29:02;;;;;;;;;;;21.30;86.40;;;;;;4303221;33;44403;-81
2021/06/04 05:31:30;;;;;;;;;;;21.30;87.20;;;;;;4290904;33;43662;-81
2021/06/04 05:33:57;;;;;;;;;;;21.30;86.60;;;;;;4303396;33;44453;-81
2021/06/04 05:36:32;;;;;;;;;;;21.40;86.70;;;;;;4290344;33;35956;-81
2021/06/04 05:39:01;;;;;;;;;;;21.40;86.70;;;;;;4303979;33;36081;-81
2021/06/04 05:41:28;;;;;;;;;;;21.30;86.80;;;;;;4303536;33;42882;-81
2021/06/04 05:44:17;;;;;;;;;;;21.40;87.00;;;;;;4292800;33;43440;-81
2021/06/04 05:46:45;;;;;;;;;;;21.30;87.10;;;;;;4289954;33;44151;-81
2021/06/04 05:49:12;;;;;;;;;;;21.40;87.20;;;;;;4303298;33;41682;-81
2021/06/04 05:51:42;;;;;;;;;;;21.40;87.30;;;;;;4277968;33;42353;-82
2021/06/04 05:54:09;;;;;;;;;;;21.40;87.40;;;;;;4290471;33;43506;-82
2021/06/04 05:56:39;;;;;;;;;;;21.40;87.50;;;;;;4290206;33;43986;-81
2021/06/04 05:59:06;;;;;;;;;;;21.30;87.70;;;;;;4303350;33;44621;-81
2021/06/04 06:01:38;;;;;;;;;;;21.40;87.80;;;;;;4303314;33;43652;-81
2021/06/04 06:04:05;;;;;;;;;;;21.40;87.80;;;;;;4278287;33;43340;-82
2021/06/04 06:06:32;;;;;;;;;;;21.30;87.80;;;;;;4303274;33;41515;-81
2021/06/04 06:09:00;;;;;;;;;;;21.40;88.00;;;;;;4303270;33;44380;-81
2021/06/04 06:11:27;;;;;;;;;;;21.40;88.10;;;;;;4289571;33;43921;-81
2021/06/04 06:13:56;;;;;;;;;;;21.40;88.20;;;;;;4290291;33;40248;-81
2021/06/04 06:16:25;;;;;;;;;;;21.40;88.40;;;;;;4277712;33;43680;-82
2021/06/04 06:18:52;;;;;;;;;;;21.40;88.50;;;;;;4303057;33;44706;-82
2021/06/04 06:21:19;;;;;;;;;;;21.40;88.50;;;;;;4302610;33;43331;-82
2021/06/04 06:23:46;;;;;;;;;;;21.40;88.40;;;;;;4302718;33;40770;-83
2021/06/04 06:26:15;;;;;;;;;;;21.40;88.30;;;;;;4290022;33;44015;-82
2021/06/04 06:28:43;;;;;;;;;;;21.40;88.50;;;;;;4290064;33;43008;-82
2021/06/04 06:31:12;;;;;;;;;;;21.40;88.60;;;;;;4289543;33;42644;-82
2021/06/04 06:33:39;;;;;;;;;;;21.50;88.80;;;;;;4302889;33;44516;-81
2021/06/04 06:36:08;;;;;;;;;;;21.40;88.80;;;;;;4302884;33;44591;-81
2021/06/04 06:38:35;;;;;;;;;;;21.50;89.00;;;;;;4289502;33;44860;-81
2021/06/04 06:41:04;;;;;;;;;;;21.50;89.00;;;;;;4303073;33;44218;-81
2021/06/04 06:43:33;;;;;;;;;;;21.50;89.00;;;;;;4277593;33;43652;-81
2021/06/04 06:46:01;;;;;;;;;;;21.50;88.90;;;;;;4289603;33;43481;-81
2021/06/04 06:48:28;;;;;;;;;;;21.50;88.80;;;;;;4283482;33;38633;-81
2021/06/04 06:50:55;;;;;;;;;;;21.50;88.80;;;;;;4302407;33;44261;-81
2021/06/04 06:53:23;;;;;;;;;;;21.50;88.80;;;;;;4289432;33;44771;-81
2021/06/04 06:55:51;;;;;;;;;;;21.50;88.80;;;;;;4289511;33;40123;-81
2021/06/04 06:58:19;;;;;;;;;;;21.60;88.80;;;;;;4288937;33;46809;-81
2021/06/04 07:00:51;;;;;;;;;;;21.60;88.80;;;;;;4302415;33;44334;-81
2021/06/04 07:03:23;;;;;;;;;;;21.60;88.80;;;;;;4288988;33;45045;-82
2021/06/04 07:05:50;;;;;;;;;;;21.60;88.70;;;;;;4302800;33;43151;-81
2021/06/04 07:08:18;;;;;;;;;;;21.60;88.80;;;;;;4303079;33;20065;-82
2021/06/04 07:10:47;;;;;;;;;;;21.60;88.70;;;;;;4303746;33;20002;-81
2021/06/04 07:13:17;;;;;;;;;;;21.60;88.90;;;;;;4276760;33;44754;-82
2021/06/04 07:15:44;;;;;;;;;;;21.60;88.90;;;;;;4302248;33;42690;-82
2021/06/04 07:18:11;;;;;;;;;;;21.60;88.90;;;;;;4288774;33;42657;-82
2021/06/04 07:20:38;;;;;;;;;;;21.60;88.70;;;;;;4302395;33;44434;-81
2021/06/04 07:23:10;;;;;;;;;;;21.70;88.80;;;;;;4302224;33;44706;-82
2021/06/04 07:25:38;;;;;;;;;;;21.70;88.70;;;;;;4302208;33;43633;-82
2021/06/04 07:28:08;;;;;;;;;;;21.70;88.60;;;;;;4289648;33;31935;-83
2021/06/04 07:30:37;;;;;;;;;;;21.70;88.50;;;;;;4276535;33;44355;-81
2021/06/04 07:33:06;;;;;;;;;;;21.70;88.40;;;;;;4301742;33;44619;-81
2021/06/04 07:35:34;;;;;;;;;;;21.70;88.30;;;;;;4303117;33;20020;-82
2021/06/04 07:38:02;;;;;;;;;;;21.70;88.40;;;;;;4289342;33;20013;-81
2021/06/04 07:40:29;;;;;;;;;;;21.70;88.40;;;;;;4303149;33;20018;-81
2021/06/04 07:42:59;;;;;;;;;;;21.70;88.40;;;;;;4302085;33;38958;-82
2021/06/04 07:45:30;;;;;;;;;;;21.70;88.30;;;;;;4302867;33;20049;-82
2021/06/04 07:47:58;;;;;;;;;;;21.70;88.30;;;;;;4302982;33;20043;-82
2021/06/04 07:50:28;;;;;;;;;;;21.70;88.20;;;;;;4289950;33;20024;-82
2021/06/04 07:52:57;;;;;;;;;;;21.70;88.20;;;;;;4302208;33;20408;-82
2021/06/04 07:55:26;;;;;;;;;;;21.70;88.20;;;;;;4289333;33;20040;-82
2021/06/04 07:57:53;;;;;;;;;;;21.70;88.20;;;;;;4301903;33;20499;-81
2021/06/04 08:00:23;;;;;;;;;;;21.80;88.20;;;;;;4275924;33;20014;-81
2021/06/04 08:02:50;;;;;;;;;;;21.80;88.20;;;;;;4302289;33;20463;-81
2021/06/04 08:05:19;;;;;;;;;;;21.80;88.10;;;;;;4302931;33;20003;-81
2021/06/04 08:07:46;;;;;;;;;;;21.80;88.10;;;;;;4289349;33;20010;-81
2021/06/04 08:10:14;;;;;;;;;;;21.80;88.10;;;;;;4301759;33;20380;-81
2021/06/04 08:12:42;;;;;;;;;;;21.80;88.20;;;;;;4289427;33;20026;-81
2021/06/04 08:15:12;;;;;;;;;;;21.80;88.20;;;;;;4277309;33;20038;-81
2021/06/04 08:17:39;;;;;;;;;;;21.80;88.10;;;;;;4302112;33;20029;-81
2021/06/04 08:20:09;;;;;;;;;;;21.80;88.10;;;;;;4277406;33;19998;-82
2021/06/04 08:22:41;;;;;;;;;;;21.80;88.10;;;;;;4302456;33;20430;-81
2021/06/04 08:25:09;;;;;;;;;;;21.90;88.10;;;;;;4302246;33;23256;-81
2021/06/04 08:27:36;;;;;;;;;;;21.90;88.10;;;;;;4302111;33;20161;-82
2021/06/04 08:30:04;;;;;;;;;;;21.90;88.00;;;;;;4289483;33;20427;-82
2021/06/04 08:32:33;;;;;;;;;;;21.90;88.10;;;;;;4288894;33;20014;-82
2021/06/04 08:35:04;;;;;;;;;;;21.90;88.10;;;;;;4302096;33;23117;-82
2021/06/04 08:37:31;;;;;;;;;;;21.90;88.20;;;;;;4277347;33;20375;-82
2021/06/04 08:40:00;;;;;;;;;;;21.90;88.30;;;;;;4302251;33;20015;-82
2021/06/04 08:42:33;;;;;;;;;;;21.90;88.30;;;;;;4289402;33;20002;-82
2021/06/04 08:45:09;;;;;;;;;;;21.90;88.30;;;;;;4301197;33;43652;-82
2021/06/04 08:47:36;;;;;;;;;;;21.90;88.40;;;;;;4288604;33;36437;-82
2021/06/04 08:50:22;;;;;;;;;;;22.00;88.40;;;;;;4288255;33;43356;-82
2021/06/04 08:53:22;;;;;;;;;;;22.00;88.40;;;;;;4301907;33;21027;-82
2021/06/04 08:55:55;;;;;;;;;;;22.00;88.40;;;;;;4278834;33;42190;-82
2021/06/04 08:58:22;;;;;;;;;;;22.00;88.50;;;;;;4288208;33;35696;-82
2021/06/04 09:00:54;;;;;;;;;;;22.00;88.50;;;;;;4301126;33;43823;-82
2021/06/04 09:03:23;;;;;;;;;;;22.00;88.60;;;;;;4300820;33;43178;-82
2021/06/04 09:05:53;;;;;;;;;;;22.00;88.60;;;;;;4287986;33;44980;-82
2021/06/04 09:08:31;;;;;;;;;;;22.00;88.60;;;;;;4288488;33;20022;-82
2021/06/04 09:11:00;;;;;;;;;;;22.10;88.90;;;;;;4275749;33;45084;-82
2021/06/04 09:13:31;;;;;;;;;;;22.10;88.80;;;;;;4288659;33;20303;-82
2021/06/04 09:16:05;;;;;;;;;;;22.10;88.80;;;;;;4289001;33;20047;-83
2021/06/04 09:18:39;;;;;;;;;;;22.10;88.80;;;;;;4289103;33;20018;-83
2021/06/04 09:21:11;;;;;;;;;;;22.10;88.80;;;;;;4289272;33;20080;-83
2021/06/04 09:23:40;;;;;;;;;;;22.10;88.70;;;;;;4304622;33;20005;-83
2021/06/04 09:26:08;;;;;;;;;;;22.10;88.80;;;;;;4291313;33;20010;-83
2021/06/04 09:28:35;;;;;;;;;;;22.20;89.00;;;;;;4305084;33;20351;-83
2021/06/04 09:31:21;;;;;;;;;;;22.20;88.90;;;;;;4304720;33;20037;-83
2021/06/04 09:33:54;;;;;;;;;;;22.20;88.90;;;;;;4304860;33;20435;-83
2021/06/04 09:36:25;;;;;;;;;;;22.20;88.90;;;;;;4304183;33;20400;-83
2021/06/04 09:39:14;;;;;;;;;;;22.20;88.90;;;;;;4303811;33;20418;-83
2021/06/04 09:41:46;;;;;;;;;;;22.20;88.90;;;;;;4277199;33;20014;-83
2021/06/04 09:44:22;;;;;;;;;;;22.20;88.90;;;;;;4291633;33;20377;-84
2021/06/04 09:47:10;;;;;;;;;;;22.30;89.00;;;;;;4304146;33;29543;-84
2021/06/04 09:49:40;;;;;;;;;;;22.30;89.00;;;;;;4304359;33;20363;-84
2021/06/04 09:52:20;;;;;;;;;;;22.30;89.00;;;;;;4291689;33;20032;-83
2021/06/04 09:55:01;;;;;;;;;;;22.30;89.00;;;;;;4304487;33;25227;-85
2021/06/04 09:57:28;;;;;;;;;;;22.40;89.00;;;;;;4304208;33;20420;-84
2021/06/04 10:00:15;;;;;;;;;;;22.40;89.30;;;;;;4291086;33;20006;-84
2021/06/04 10:02:42;;;;;;;;;;;22.40;89.50;;;;;;4290643;33;20002;-83
2021/06/04 10:05:12;;;;;;;;;;;22.40;89.40;;;;;;4304089;33;20021;-84
2021/06/04 10:07:40;;;;;;;;;;;22.50;90.10;;;;;;4290649;33;20015;-84
2021/06/04 10:10:22;;;;;;;;;;;22.50;89.50;;;;;;4303410;33;22850;-84
2021/06/04 10:12:56;;;;;;;;;;;22.60;89.60;;;;;;4304054;33;20002;-84
2021/06/04 10:15:24;;;;;;;;;;;22.60;89.40;;;;;;4290875;33;20083;-83
2021/06/04 10:20:39;;;;;;;;;;;22.70;89.30;;;;;;4289518;33;45041;-83
2021/06/04 10:23:15;;;;;;;;;;;22.70;89.20;;;;;;4290330;33;44348;-84
2021/06/04 10:25:50;;;;;;;;;;;22.70;89.10;;;;;;4303300;33;44399;-84
2021/06/04 10:28:27;;;;;;;;;;;22.70;89.00;;;;;;4303675;33;24539;-84
2021/06/04 10:30:57;;;;;;;;;;;22.80;89.00;;;;;;4290769;33;21696;-84
2021/06/04 10:33:37;;;;;;;;;;;22.80;88.90;;;;;;4302595;33;29399;-84
2021/06/04 10:36:06;;;;;;;;;;;22.80;88.90;;;;;;4302975;33;44480;-84
2021/06/04 10:38:38;;;;;;;;;;;22.80;88.90;;;;;;4289238;33;44743;-84
2021/06/04 10:41:11;;;;;;;;;;;22.80;88.90;;;;;;4303036;33;44359;-84
2021/06/04 10:43:57;;;;;;;;;;;22.80;88.80;;;;;;4277301;33;45665;-84
2021/06/04 10:46:29;;;;;;;;;;;22.80;88.80;;;;;;4302838;33;44378;-84
2021/06/04 10:49:03;;;;;;;;;;;22.80;88.70;;;;;;4289348;33;45242;-83
2021/06/04 10:51:30;;;;;;;;;;;22.80;88.70;;;;;;4302092;33;22274;-84
2021/06/04 10:54:02;;;;;;;;;;;22.90;88.70;;;;;;4289940;33;22272;-84
2021/06/04 10:56:30;;;;;;;;;;;22.90;88.80;;;;;;4290543;33;20010;-84
2021/06/04 10:59:15;;;;;;;;;;;22.90;88.80;;;;;;4303311;33;20010;-85
2021/06/04 11:01:54;;;;;;;;;;;22.90;88.60;;;;;;4278602;33;20015;-83
2021/06/04 11:04:41;;;;;;;;;;;23.00;88.50;;;;;;4303574;33;20019;-84
2021/06/04 11:07:16;;;;;;;;;;;23.00;88.50;;;;;;4278060;33;22382;-84
2021/06/04 11:09:53;;;;;;;;;;;23.00;88.30;;;;;;4289775;33;26028;-84
2021/06/04 11:12:20;;;;;;;;;;;23.00;88.30;;;;;;4303484;33;20014;-84
2021/06/04 11:15:03;;;;;;;;;;;23.00;88.10;;;;;;4288676;33;44521;-84
2021/06/04 11:17:35;;;;;;;;;;;23.10;88.20;;;;;;4303263;33;20016;-84
2021/06/04 11:20:14;;;;;;;;;;;23.00;88.10;;;;;;4289985;33;20010;-84
2021/06/04 11:22:44;;;;;;;;;;;23.10;88.20;;;;;;4288818;33;46138;-84
2021/06/04 11:25:30;;;;;;;;;;;23.10;88.10;;;;;;4301725;33;43387;-84
2021/06/04 11:28:20;;;;;;;;;;;23.10;88.00;;;;;;4302246;33;44343;-83
2021/06/04 11:30:50;;;;;;;;;;;23.10;87.90;;;;;;4298071;33;43971;-84
2021/06/04 11:33:19;;;;;;;;;;;23.20;87.90;;;;;;4277873;33;20002;-84
2021/06/04 11:35:54;;;;;;;;;;;23.20;87.90;;;;;;4302669;33;26833;-84
2021/06/04 11:38:21;;;;;;;;;;;23.20;87.80;;;;;;4290011;33;20016;-83
2021/06/04 11:40:52;;;;;;;;;;;23.20;87.80;;;;;;4289683;33;20391;-83
2021/06/04 11:43:30;;;;;;;;;;;23.20;87.70;;;;;;4289711;33;21746;-83
2021/06/04 11:46:12;;;;;;;;;;;23.20;87.60;;;;;;4302678;33;21994;-84
2021/06/04 11:48:40;;;;;;;;;;;23.20;87.50;;;;;;4289302;33;20032;-84
2021/06/04 11:51:19;;;;;;;;;;;23.20;87.40;;;;;;4303252;33;20359;-84
2021/06/04 11:53:53;;;;;;;;;;;23.20;87.40;;;;;;4302461;33;20073;-83
2021/06/04 11:56:39;;;;;;;;;;;23.30;87.40;;;;;;4289641;33;20336;-83
2021/06/04 11:59:26;;;;;;;;;;;23.30;87.40;;;;;;4302776;33;20026;-83
2021/06/04 12:02:16;;;;;;;;;;;23.30;87.30;;;;;;4288616;33;27447;-83
2021/06/04 12:05:02;;;;;;;;;;;23.30;88.10;;;;;;4300702;33;37774;-83
2021/06/04 12:07:34;;;;;;;;;;;23.30;87.20;;;;;;4288782;33;44588;-83
2021/06/04 12:10:01;;;;;;;;;;;23.30;87.10;;;;;;4301618;33;43375;-83
2021/06/04 12:12:29;;;;;;;;;;;23.30;87.10;;;;;;4301581;33;43585;-82
2021/06/04 12:14:57;;;;;;;;;;;23.30;87.00;;;;;;4276223;33;42858;-83
2021/06/04 12:17:25;;;;;;;;;;;23.30;86.90;;;;;;4289318;33;20007;-83
2021/06/04 12:20:11;;;;;;;;;;;23.30;86.80;;;;;;4302109;33;20025;-82
2021/06/04 12:22:41;;;;;;;;;;;23.30;86.80;;;;;;4302546;33;20018;-83
2021/06/04 12:25:10;;;;;;;;;;;23.30;86.80;;;;;;4302218;33;21601;-82
2021/06/04 12:27:56;;;;;;;;;;;23.30;86.70;;;;;;4302459;33;20082;-82
2021/06/04 12:30:44;;;;;;;;;;;23.40;86.70;;;;;;4302572;33;20019;-82
2021/06/04 12:33:36;;;;;;;;;;;23.40;86.60;;;;;;4302620;33;20041;-82
2021/06/04 12:36:23;;;;;;;;;;;23.40;86.60;;;;;;4301716;33;37752;-82
2021/06/04 12:38:50;;;;;;;;;;;23.30;86.40;;;;;;4301133;33;44105;-81
2021/06/04 12:41:21;;;;;;;;;;;23.40;86.40;;;;;;4288422;33;44319;-82
2021/06/04 12:43:52;;;;;;;;;;;23.40;86.30;;;;;;4288039;33;43656;-82
2021/06/04 12:46:22;;;;;;;;;;;23.40;86.30;;;;;;4288694;33;44280;-82
2021/06/04 12:48:59;;;;;;;;;;;23.40;86.20;;;;;;4288383;33;44620;-81
2021/06/04 12:51:27;;;;;;;;;;;23.40;86.10;;;;;;4301468;33;44396;-81
2021/06/04 12:54:06;;;;;;;;;;;23.40;86.10;;;;;;4301355;33;44758;-82
2021/06/04 12:56:47;;;;;;;;;;;23.40;86.00;;;;;;4301997;33;44699;-82
2021/06/04 12:59:17;;;;;;;;;;;23.40;86.00;;;;;;4304471;33;44200;-81
2021/06/04 13:01:53;;;;;;;;;;;23.50;86.00;;;;;;4303942;33;44650;-81
2021/06/04 13:04:25;;;;;;;;;;;23.40;86.00;;;;;;4303939;33;20006;-82
2021/06/04 13:06:54;;;;;;;;;;;23.50;86.00;;;;;;4291719;33;24080;-81
2021/06/04 13:09:26;;;;;;;;;;;23.50;86.00;;;;;;4304324;33;20069;-82
2021/06/04 13:11:54;;;;;;;;;;;23.50;86.00;;;;;;4291886;33;20048;-82
2021/06/04 13:14:28;;;;;;;;;;;23.60;86.00;;;;;;4303568;33;20051;-81
2021/06/04 13:17:08;;;;;;;;;;;23.60;86.10;;;;;;4304753;33;20073;-82
2021/06/04 13:19:35;;;;;;;;;;;23.60;86.00;;;;;;4304945;33;20015;-82
2021/06/04 13:22:23;;;;;;;;;;;23.60;86.00;;;;;;4304376;33;20015;-81
2021/06/04 13:24:54;;;;;;;;;;;23.60;85.90;;;;;;4291378;33;22613;-81
2021/06/04 13:27:29;;;;;;;;;;;23.70;85.90;;;;;;4304851;33;20010;-82
2021/06/04 13:30:01;;;;;;;;;;;23.70;85.80;;;;;;4303764;33;43709;-82
2021/06/04 13:32:39;;;;;;;;;;;23.70;85.80;;;;;;4304361;33;28033;-82
2021/06/04 13:35:24;;;;;;;;;;;23.80;85.70;;;;;;4304875;33;20081;-81
2021/06/04 13:38:06;;;;;;;;;;;23.80;85.70;;;;;;4278743;33;44682;-82
2021/06/04 13:40:35;;;;;;;;;;;23.80;85.70;;;;;;4304221;33;37265;-81
2021/06/04 13:43:06;;;;;;;;;;;23.80;85.60;;;;;;4303557;33;43789;-81
2021/06/04 13:45:38;;;;;;;;;;;23.90;85.70;;;;;;4303234;33;44410;-81
2021/06/04 13:48:11;;;;;;;;;;;23.90;85.60;;;;;;4304532;33;20006;-81
2021/06/04 13:50:57;;;;;;;;;;;23.90;85.50;;;;;;4279430;33;20017;-81
2021/06/04 13:53:27;;;;;;;;;;;23.90;85.40;;;;;;4304574;33;20022;-82
2021/06/04 13:56:11;;;;;;;;;;;23.90;85.30;;;;;;4291083;33;20022;-82
2021/06/04 13:58:42;;;;;;;;;;;23.90;85.20;;;;;;4291455;33;20388;-82
2021/06/04 14:01:14;;;;;;;;;;;24.00;85.20;;;;;;4290129;33;44771;-82
2021/06/04 14:03:43;;;;;;;;;;;24.00;85.10;;;;;;4290285;33;25008;-82
2021/06/04 14:06:16;;;;;;;;;;;24.00;85.00;;;;;;4290961;33;20003;-82
2021/06/04 14:09:20;;;;;;;;;;;24.00;84.90;;;;;;4303640;33;20427;-82
2021/06/04 14:11:52;;;;;;;;;;;24.00;84.70;;;;;;4299668;33;20021;-82
2021/06/04 14:14:24;;;;;;;;;;;24.00;84.60;;;;;;4303665;33;19999;-82
2021/06/04 14:16:56;;;;;;;;;;;24.00;84.50;;;;;;4291319;33;20006;-82
2021/06/04 14:19:32;;;;;;;;;;;24.00;84.40;;;;;;4304021;33;20017;-82
2021/06/04 14:22:07;;;;;;;;;;;24.00;84.30;;;;;;4291123;33;20054;-82
2021/06/04 14:24:50;;;;;;;;;;;24.00;84.20;;;;;;4278802;33;20006;-82
2021/06/04 14:27:32;;;;;;;;;;;24.00;84.10;;;;;;4291227;33;20054;-82
2021/06/04 14:30:14;;;;;;;;;;;24.00;84.00;;;;;;4303552;33;20044;-82
2021/06/04 14:32:42;;;;;;;;;;;24.00;84.00;;;;;;4304301;33;20427;-82
2021/06/04 14:35:15;;;;;;;;;;;24.10;83.90;;;;;;4290539;33;20013;-82
2021/06/04 14:37:48;;;;;;;;;;;24.10;83.80;;;;;;4303579;33;21713;-81
2021/06/04 14:40:18;;;;;;;;;;;24.10;83.80;;;;;;4290766;33;20014;-81
2021/06/04 14:42:45;;;;;;;;;;;24.10;83.80;;;;;;4303389;33;20468;-82
2021/06/04 14:45:16;;;;;;;;;;;24.10;83.70;;;;;;4303887;33;20009;-82